sensor_id;sensor_type;location;lat;lon;timestamp;P1;durP1;ratioP1;P2;durP2;ratioP2
28960;SDS011;16068;42.896;20.868;2023-08-12T00:00:21;4.07;;;2.20;;
28960;SDS011;16068;42.896;20.868;2023-08-12T00:03:07;10.65;;;2.88;;
28960;SDS011;16068;42.896;20.868;2023-08-12T00:05:54;4.70;;;2.45;;
28960;SDS011;16068;42.896;20.868;2023-08-12T00:08:41;4.20;;;2.70;;
28960;SDS011;16068;42.896;20.868;2023-08-12T00:11:28;7.82;;;3.00;;
28960;SDS011;16068;42.896;20.868;2023-08-12T00:14:14;4.25;;;2.60;;
28960;SDS011;16068;42.896;20.868;2023-08-12T00:17:00;8.80;;;3.10;;
28960;SDS011;16068;42.896;20.868;2023-08-12T00:19:46;3.58;;;2.78;;
28960;SDS011;16068;42.896;20.868;2023-08-12T00:22:33;4.78;;;2.78;;
28960;SDS011;16068;42.896;20.868;2023-08-12T00:25:19;7.22;;;2.90;;
28960;SDS011;16068;42.896;20.868;2023-08-12T00:28:05;4.65;;;2.92;;
28960;SDS011;16068;42.896;20.868;2023-08-12T00:30:52;4.43;;;2.60;;
28960;SDS011;16068;42.896;20.868;2023-08-12T00:33:38;5.13;;;2.67;;
28960;SDS011;16068;42.896;20.868;2023-08-12T00:36:24;3.60;;;2.60;;
28960;SDS011;16068;42.896;20.868;2023-08-12T00:39:10;10.52;;;3.30;;
28960;SDS011;16068;42.896;20.868;2023-08-12T00:41:56;4.22;;;2.53;;
28960;SDS011;16068;42.896;20.868;2023-08-12T00:44:42;4.50;;;2.42;;
28960;SDS011;16068;42.896;20.868;2023-08-12T00:47:28;3.60;;;2.72;;
28960;SDS011;16068;42.896;20.868;2023-08-12T00:50:16;4.10;;;2.88;;
28960;SDS011;16068;42.896;20.868;2023-08-12T00:53:02;6.30;;;2.80;;
28960;SDS011;16068;42.896;20.868;2023-08-12T00:55:48;5.95;;;2.33;;
28960;SDS011;16068;42.896;20.868;2023-08-12T00:58:34;5.55;;;2.55;;
28960;SDS011;16068;42.896;20.868;2023-08-12T01:01:21;4.85;;;2.55;;
28960;SDS011;16068;42.896;20.868;2023-08-12T01:04:08;4.72;;;2.30;;
28960;SDS011;16068;42.896;20.868;2023-08-12T01:06:55;11.10;;;2.90;;
28960;SDS011;16068;42.896;20.868;2023-08-12T01:09:42;5.35;;;2.80;;
28960;SDS011;16068;42.896;20.868;2023-08-12T01:12:40;5.47;;;2.40;;
28960;SDS011;16068;42.896;20.868;2023-08-12T01:15:30;3.95;;;2.42;;
28960;SDS011;16068;42.896;20.868;2023-08-12T01:18:17;3.85;;;2.67;;
28960;SDS011;16068;42.896;20.868;2023-08-12T01:21:03;5.43;;;2.80;;
28960;SDS011;16068;42.896;20.868;2023-08-12T01:23:51;4.15;;;2.65;;
28960;SDS011;16068;42.896;20.868;2023-08-12T01:26:37;4.55;;;2.72;;
28960;SDS011;16068;42.896;20.868;2023-08-12T01:29:24;8.68;;;2.67;;
28960;SDS011;16068;42.896;20.868;2023-08-12T01:32:17;4.15;;;2.60;;
28960;SDS011;16068;42.896;20.868;2023-08-12T01:38:14;4.95;;;2.30;;
28960;SDS011;16068;42.896;20.868;2023-08-12T01:41:01;4.50;;;2.60;;
28960;SDS011;16068;42.896;20.868;2023-08-12T01:43:47;3.97;;;2.72;;
28960;SDS011;16068;42.896;20.868;2023-08-12T01:46:34;3.42;;;2.60;;
28960;SDS011;16068;42.896;20.868;2023-08-12T01:49:21;9.85;;;3.22;;
28960;SDS011;16068;42.896;20.868;2023-08-12T01:52:08;4.30;;;2.67;;
28960;SDS011;16068;42.896;20.868;2023-08-12T01:54:54;3.72;;;2.45;;
28960;SDS011;16068;42.896;20.868;2023-08-12T01:57:41;7.13;;;3.13;;
28960;SDS011;16068;42.896;20.868;2023-08-12T02:00:27;5.75;;;2.80;;
28960;SDS011;16068;42.896;20.868;2023-08-12T02:03:14;5.90;;;2.72;;
28960;SDS011;16068;42.896;20.868;2023-08-12T02:05:59;5.95;;;3.03;;
28960;SDS011;16068;42.896;20.868;2023-08-12T02:08:46;6.10;;;2.92;;
28960;SDS011;16068;42.896;20.868;2023-08-12T02:11:32;3.28;;;2.75;;
28960;SDS011;16068;42.896;20.868;2023-08-12T02:14:18;5.90;;;2.90;;
28960;SDS011;16068;42.896;20.868;2023-08-12T02:17:04;5.00;;;2.72;;
28960;SDS011;16068;42.896;20.868;2023-08-12T02:19:52;3.75;;;2.55;;
28960;SDS011;16068;42.896;20.868;2023-08-12T02:22:37;5.15;;;2.67;;
28960;SDS011;16068;42.896;20.868;2023-08-12T02:25:23;5.80;;;3.10;;
28960;SDS011;16068;42.896;20.868;2023-08-12T02:28:10;3.72;;;2.63;;
28960;SDS011;16068;42.896;20.868;2023-08-12T02:30:57;9.60;;;2.88;;
28960;SDS011;16068;42.896;20.868;2023-08-12T02:33:43;4.90;;;3.00;;
28960;SDS011;16068;42.896;20.868;2023-08-12T02:36:29;4.22;;;2.83;;
28960;SDS011;16068;42.896;20.868;2023-08-12T02:39:15;6.85;;;3.45;;
28960;SDS011;16068;42.896;20.868;2023-08-12T02:42:02;8.05;;;2.75;;
28960;SDS011;16068;42.896;20.868;2023-08-12T02:44:48;6.32;;;3.25;;
28960;SDS011;16068;42.896;20.868;2023-08-12T02:47:34;5.68;;;3.10;;
28960;SDS011;16068;42.896;20.868;2023-08-12T02:50:20;4.68;;;3.22;;
28960;SDS011;16068;42.896;20.868;2023-08-12T02:53:06;7.18;;;3.60;;
28960;SDS011;16068;42.896;20.868;2023-08-12T02:55:53;5.35;;;3.05;;
28960;SDS011;16068;42.896;20.868;2023-08-12T02:58:38;7.53;;;3.20;;
28960;SDS011;16068;42.896;20.868;2023-08-12T03:01:24;6.43;;;2.90;;
28960;SDS011;16068;42.896;20.868;2023-08-12T03:04:10;8.65;;;3.00;;
28960;SDS011;16068;42.896;20.868;2023-08-12T03:06:56;7.03;;;2.90;;
28960;SDS011;16068;42.896;20.868;2023-08-12T03:09:42;4.65;;;2.95;;
28960;SDS011;16068;42.896;20.868;2023-08-12T03:12:28;7.10;;;3.42;;
28960;SDS011;16068;42.896;20.868;2023-08-12T03:15:14;6.75;;;2.88;;
28960;SDS011;16068;42.896;20.868;2023-08-12T03:18:03;5.95;;;3.15;;
28960;SDS011;16068;42.896;20.868;2023-08-12T03:20:50;7.60;;;2.97;;
28960;SDS011;16068;42.896;20.868;2023-08-12T03:23:38;10.55;;;3.00;;
28960;SDS011;16068;42.896;20.868;2023-08-12T03:26:26;5.13;;;3.35;;
28960;SDS011;16068;42.896;20.868;2023-08-12T03:29:15;8.60;;;3.03;;
28960;SDS011;16068;42.896;20.868;2023-08-12T03:32:01;10.98;;;3.42;;
28960;SDS011;16068;42.896;20.868;2023-08-12T03:34:48;6.47;;;2.83;;
28960;SDS011;16068;42.896;20.868;2023-08-12T03:37:34;5.18;;;3.20;;
28960;SDS011;16068;42.896;20.868;2023-08-12T03:40:20;9.43;;;3.42;;
28960;SDS011;16068;42.896;20.868;2023-08-12T03:43:07;6.10;;;3.25;;
28960;SDS011;16068;42.896;20.868;2023-08-12T03:45:53;4.25;;;3.05;;
28960;SDS011;16068;42.896;20.868;2023-08-12T03:48:40;5.10;;;3.17;;
28960;SDS011;16068;42.896;20.868;2023-08-12T03:51:28;4.07;;;2.90;;
28960;SDS011;16068;42.896;20.868;2023-08-12T03:54:13;5.57;;;3.38;;
28960;SDS011;16068;42.896;20.868;2023-08-12T03:57:00;10.05;;;3.67;;
28960;SDS011;16068;42.896;20.868;2023-08-12T03:59:46;8.30;;;3.65;;
28960;SDS011;16068;42.896;20.868;2023-08-12T04:02:33;8.40;;;2.90;;
28960;SDS011;16068;42.896;20.868;2023-08-12T04:05:19;5.22;;;3.30;;
28960;SDS011;16068;42.896;20.868;2023-08-12T04:08:06;8.45;;;3.50;;
28960;SDS011;16068;42.896;20.868;2023-08-12T04:10:53;15.18;;;3.75;;
28960;SDS011;16068;42.896;20.868;2023-08-12T04:13:39;6.28;;;3.40;;
28960;SDS011;16068;42.896;20.868;2023-08-12T04:16:25;12.60;;;3.92;;
28960;SDS011;16068;42.896;20.868;2023-08-12T04:19:12;5.40;;;3.13;;
28960;SDS011;16068;42.896;20.868;2023-08-12T04:21:58;5.53;;;3.15;;
28960;SDS011;16068;42.896;20.868;2023-08-12T04:24:44;5.65;;;3.50;;
28960;SDS011;16068;42.896;20.868;2023-08-12T04:27:31;7.45;;;3.47;;
28960;SDS011;16068;42.896;20.868;2023-08-12T04:30:18;7.13;;;3.53;;
28960;SDS011;16068;42.896;20.868;2023-08-12T04:33:05;4.32;;;3.10;;
28960;SDS011;16068;42.896;20.868;2023-08-12T04:35:52;6.07;;;3.95;;
28960;SDS011;16068;42.896;20.868;2023-08-12T04:38:41;6.50;;;3.60;;
28960;SDS011;16068;42.896;20.868;2023-08-12T04:41:29;5.78;;;3.40;;
28960;SDS011;16068;42.896;20.868;2023-08-12T04:44:16;5.90;;;3.88;;
28960;SDS011;16068;42.896;20.868;2023-08-12T04:47:02;5.28;;;3.65;;
28960;SDS011;16068;42.896;20.868;2023-08-12T04:49:51;10.95;;;3.95;;
28960;SDS011;16068;42.896;20.868;2023-08-12T04:52:37;6.50;;;3.92;;
28960;SDS011;16068;42.896;20.868;2023-08-12T04:55:27;5.03;;;3.38;;
28960;SDS011;16068;42.896;20.868;2023-08-12T04:58:14;4.32;;;3.33;;
28960;SDS011;16068;42.896;20.868;2023-08-12T05:01:00;13.23;;;4.25;;
28960;SDS011;16068;42.896;20.868;2023-08-12T05:03:48;9.52;;;3.78;;
28960;SDS011;16068;42.896;20.868;2023-08-12T05:06:34;11.48;;;4.07;;
28960;SDS011;16068;42.896;20.868;2023-08-12T05:09:20;5.45;;;3.58;;
28960;SDS011;16068;42.896;20.868;2023-08-12T05:12:07;7.32;;;3.55;;
28960;SDS011;16068;42.896;20.868;2023-08-12T05:14:53;7.20;;;3.30;;
28960;SDS011;16068;42.896;20.868;2023-08-12T05:17:40;7.32;;;3.70;;
28960;SDS011;16068;42.896;20.868;2023-08-12T05:20:27;7.20;;;3.38;;
28960;SDS011;16068;42.896;20.868;2023-08-12T05:23:15;11.32;;;3.88;;
28960;SDS011;16068;42.896;20.868;2023-08-12T05:26:01;6.97;;;3.38;;
28960;SDS011;16068;42.896;20.868;2023-08-12T05:28:47;6.30;;;3.17;;
28960;SDS011;16068;42.896;20.868;2023-08-12T05:31:33;4.55;;;3.15;;
28960;SDS011;16068;42.896;20.868;2023-08-12T05:34:19;4.78;;;3.05;;
28960;SDS011;16068;42.896;20.868;2023-08-12T05:37:05;12.05;;;3.53;;
28960;SDS011;16068;42.896;20.868;2023-08-12T05:39:51;5.97;;;3.22;;
28960;SDS011;16068;42.896;20.868;2023-08-12T05:42:37;5.93;;;3.22;;
28960;SDS011;16068;42.896;20.868;2023-08-12T05:45:23;4.05;;;3.22;;
28960;SDS011;16068;42.896;20.868;2023-08-12T05:48:11;6.85;;;3.50;;
28960;SDS011;16068;42.896;20.868;2023-08-12T05:51:00;6.68;;;3.25;;
28960;SDS011;16068;42.896;20.868;2023-08-12T05:53:47;13.02;;;5.25;;
28960;SDS011;16068;42.896;20.868;2023-08-12T05:56:34;27.00;;;15.93;;
28960;SDS011;16068;42.896;20.868;2023-08-12T05:59:19;52.72;;;34.53;;
28960;SDS011;16068;42.896;20.868;2023-08-12T06:02:05;38.20;;;26.30;;
28960;SDS011;16068;42.896;20.868;2023-08-12T06:04:52;39.65;;;25.92;;
28960;SDS011;16068;42.896;20.868;2023-08-12T06:07:38;46.05;;;25.08;;
28960;SDS011;16068;42.896;20.868;2023-08-12T06:10:24;44.35;;;32.05;;
28960;SDS011;16068;42.896;20.868;2023-08-12T06:13:10;47.05;;;34.10;;
28960;SDS011;16068;42.896;20.868;2023-08-12T06:15:56;16.83;;;9.20;;
28960;SDS011;16068;42.896;20.868;2023-08-12T06:18:43;13.63;;;8.98;;
28960;SDS011;16068;42.896;20.868;2023-08-12T06:21:29;16.88;;;8.73;;
28960;SDS011;16068;42.896;20.868;2023-08-12T06:24:15;15.13;;;8.13;;
28960;SDS011;16068;42.896;20.868;2023-08-12T06:27:01;13.80;;;7.38;;
28960;SDS011;16068;42.896;20.868;2023-08-12T06:29:48;14.18;;;7.03;;
28960;SDS011;16068;42.896;20.868;2023-08-12T06:32:34;13.25;;;7.47;;
28960;SDS011;16068;42.896;20.868;2023-08-12T06:35:22;13.93;;;7.18;;
28960;SDS011;16068;42.896;20.868;2023-08-12T06:38:12;14.20;;;6.10;;
28960;SDS011;16068;42.896;20.868;2023-08-12T06:40:59;11.38;;;5.65;;
28960;SDS011;16068;42.896;20.868;2023-08-12T06:43:45;11.93;;;6.63;;
28960;SDS011;16068;42.896;20.868;2023-08-12T06:46:31;13.73;;;5.80;;
28960;SDS011;16068;42.896;20.868;2023-08-12T06:49:17;9.05;;;5.28;;
28960;SDS011;16068;42.896;20.868;2023-08-12T06:52:03;24.10;;;14.20;;
28960;SDS011;16068;42.896;20.868;2023-08-12T06:54:49;11.07;;;5.65;;
28960;SDS011;16068;42.896;20.868;2023-08-12T06:57:36;11.77;;;4.40;;
28960;SDS011;16068;42.896;20.868;2023-08-12T07:00:22;10.15;;;4.03;;
28960;SDS011;16068;42.896;20.868;2023-08-12T07:03:08;7.22;;;3.83;;
28960;SDS011;16068;42.896;20.868;2023-08-12T07:05:54;5.95;;;3.75;;
28960;SDS011;16068;42.896;20.868;2023-08-12T07:08:40;7.78;;;3.28;;
28960;SDS011;16068;42.896;20.868;2023-08-12T07:11:28;8.68;;;3.83;;
28960;SDS011;16068;42.896;20.868;2023-08-12T07:14:15;7.97;;;3.28;;
28960;SDS011;16068;42.896;20.868;2023-08-12T07:17:01;8.68;;;3.90;;
28960;SDS011;16068;42.896;20.868;2023-08-12T07:19:47;8.82;;;3.50;;
28960;SDS011;16068;42.896;20.868;2023-08-12T07:22:34;5.47;;;3.42;;
28960;SDS011;16068;42.896;20.868;2023-08-12T07:25:20;7.45;;;3.53;;
28960;SDS011;16068;42.896;20.868;2023-08-12T07:28:09;5.25;;;2.75;;
28960;SDS011;16068;42.896;20.868;2023-08-12T07:30:55;8.45;;;3.00;;
28960;SDS011;16068;42.896;20.868;2023-08-12T07:33:42;4.95;;;2.78;;
28960;SDS011;16068;42.896;20.868;2023-08-12T07:36:28;5.63;;;3.17;;
28960;SDS011;16068;42.896;20.868;2023-08-12T07:39:15;4.32;;;2.30;;
28960;SDS011;16068;42.896;20.868;2023-08-12T07:42:01;6.53;;;3.03;;
28960;SDS011;16068;42.896;20.868;2023-08-12T07:44:48;4.78;;;2.70;;
28960;SDS011;16068;42.896;20.868;2023-08-12T07:47:39;6.30;;;3.45;;
28960;SDS011;16068;42.896;20.868;2023-08-12T07:53:28;4.63;;;3.10;;
28960;SDS011;16068;42.896;20.868;2023-08-12T07:56:13;5.57;;;2.63;;
28960;SDS011;16068;42.896;20.868;2023-08-12T07:59:00;3.03;;;2.10;;
28960;SDS011;16068;42.896;20.868;2023-08-12T08:01:47;7.60;;;2.75;;
28960;SDS011;16068;42.896;20.868;2023-08-12T08:04:36;4.28;;;2.78;;
28960;SDS011;16068;42.896;20.868;2023-08-12T08:07:22;7.40;;;2.72;;
28960;SDS011;16068;42.896;20.868;2023-08-12T08:10:09;5.75;;;2.15;;
28960;SDS011;16068;42.896;20.868;2023-08-12T08:12:55;4.20;;;2.78;;
28960;SDS011;16068;42.896;20.868;2023-08-12T08:15:42;7.03;;;3.67;;
28960;SDS011;16068;42.896;20.868;2023-08-12T08:18:28;5.90;;;2.53;;
28960;SDS011;16068;42.896;20.868;2023-08-12T08:21:14;3.65;;;2.38;;
28960;SDS011;16068;42.896;20.868;2023-08-12T08:24:01;4.57;;;2.42;;
28960;SDS011;16068;42.896;20.868;2023-08-12T08:26:47;5.65;;;2.67;;
28960;SDS011;16068;42.896;20.868;2023-08-12T08:29:33;3.58;;;2.22;;
28960;SDS011;16068;42.896;20.868;2023-08-12T08:32:19;4.93;;;2.35;;
28960;SDS011;16068;42.896;20.868;2023-08-12T08:35:06;6.80;;;2.42;;
28960;SDS011;16068;42.896;20.868;2023-08-12T08:37:53;6.03;;;2.20;;
28960;SDS011;16068;42.896;20.868;2023-08-12T08:40:39;4.88;;;2.63;;
28960;SDS011;16068;42.896;20.868;2023-08-12T08:43:25;7.03;;;2.00;;
28960;SDS011;16068;42.896;20.868;2023-08-12T08:46:16;4.35;;;2.13;;
28960;SDS011;16068;42.896;20.868;2023-08-12T08:49:02;5.88;;;2.28;;
28960;SDS011;16068;42.896;20.868;2023-08-12T08:51:50;4.40;;;2.38;;
28960;SDS011;16068;42.896;20.868;2023-08-12T08:54:37;3.00;;;2.13;;
28960;SDS011;16068;42.896;20.868;2023-08-12T08:57:25;5.20;;;2.45;;
28960;SDS011;16068;42.896;20.868;2023-08-12T09:00:31;4.45;;;2.50;;
28960;SDS011;16068;42.896;20.868;2023-08-12T09:03:18;8.25;;;2.60;;
28960;SDS011;16068;42.896;20.868;2023-08-12T09:06:04;4.72;;;1.92;;
28960;SDS011;16068;42.896;20.868;2023-08-12T09:08:51;4.38;;;2.30;;
28960;SDS011;16068;42.896;20.868;2023-08-12T09:11:38;4.82;;;2.38;;
28960;SDS011;16068;42.896;20.868;2023-08-12T09:14:26;3.58;;;2.08;;
28960;SDS011;16068;42.896;20.868;2023-08-12T09:17:12;11.05;;;2.97;;
28960;SDS011;16068;42.896;20.868;2023-08-12T09:20:00;3.25;;;1.88;;
28960;SDS011;16068;42.896;20.868;2023-08-12T09:22:46;10.18;;;3.67;;
28960;SDS011;16068;42.896;20.868;2023-08-12T09:25:42;12.45;;;2.22;;
28960;SDS011;16068;42.896;20.868;2023-08-12T09:28:31;3.40;;;2.05;;
28960;SDS011;16068;42.896;20.868;2023-08-12T09:31:27;7.82;;;2.00;;
28960;SDS011;16068;42.896;20.868;2023-08-12T09:34:14;7.97;;;2.38;;
28960;SDS011;16068;42.896;20.868;2023-08-12T09:37:00;3.65;;;2.40;;
28960;SDS011;16068;42.896;20.868;2023-08-12T09:39:49;11.40;;;2.67;;
28960;SDS011;16068;42.896;20.868;2023-08-12T09:42:43;6.32;;;2.55;;
28960;SDS011;16068;42.896;20.868;2023-08-12T09:45:32;5.07;;;2.20;;
28960;SDS011;16068;42.896;20.868;2023-08-12T09:48:19;2.67;;;1.70;;
28960;SDS011;16068;42.896;20.868;2023-08-12T09:51:06;4.75;;;1.90;;
28960;SDS011;16068;42.896;20.868;2023-08-12T09:53:53;4.95;;;1.63;;
28960;SDS011;16068;42.896;20.868;2023-08-12T09:56:40;8.32;;;3.42;;
28960;SDS011;16068;42.896;20.868;2023-08-12T09:59:32;10.73;;;3.58;;
28960;SDS011;16068;42.896;20.868;2023-08-12T10:02:20;5.20;;;2.70;;
28960;SDS011;16068;42.896;20.868;2023-08-12T10:05:06;66.68;;;42.85;;
28960;SDS011;16068;42.896;20.868;2023-08-12T10:07:54;7.70;;;4.30;;
28960;SDS011;16068;42.896;20.868;2023-08-12T10:10:40;26.48;;;18.60;;
28960;SDS011;16068;42.896;20.868;2023-08-12T10:13:31;30.88;;;22.60;;
28960;SDS011;16068;42.896;20.868;2023-08-12T10:16:17;13.45;;;9.18;;
28960;SDS011;16068;42.896;20.868;2023-08-12T10:19:07;6.57;;;4.60;;
28960;SDS011;16068;42.896;20.868;2023-08-12T10:21:57;7.40;;;3.50;;
28960;SDS011;16068;42.896;20.868;2023-08-12T10:24:45;5.10;;;3.20;;
28960;SDS011;16068;42.896;20.868;2023-08-12T10:27:32;6.97;;;2.70;;
28960;SDS011;16068;42.896;20.868;2023-08-12T10:30:20;4.18;;;2.50;;
28960;SDS011;16068;42.896;20.868;2023-08-12T10:33:06;4.72;;;2.40;;
28960;SDS011;16068;42.896;20.868;2023-08-12T10:35:56;3.47;;;2.35;;
28960;SDS011;16068;42.896;20.868;2023-08-12T10:38:43;3.53;;;2.10;;
28960;SDS011;16068;42.896;20.868;2023-08-12T10:41:30;2.55;;;2.03;;
28960;SDS011;16068;42.896;20.868;2023-08-12T10:44:21;5.28;;;2.20;;
28960;SDS011;16068;42.896;20.868;2023-08-12T10:47:08;3.85;;;1.92;;
28960;SDS011;16068;42.896;20.868;2023-08-12T10:49:56;2.28;;;1.90;;
28960;SDS011;16068;42.896;20.868;2023-08-12T10:52:43;6.90;;;1.90;;
28960;SDS011;16068;42.896;20.868;2023-08-12T10:55:31;4.80;;;1.80;;
28960;SDS011;16068;42.896;20.868;2023-08-12T10:58:28;5.70;;;2.40;;
28960;SDS011;16068;42.896;20.868;2023-08-12T11:01:19;4.18;;;1.92;;
28960;SDS011;16068;42.896;20.868;2023-08-12T11:04:17;6.75;;;2.38;;
28960;SDS011;16068;42.896;20.868;2023-08-12T11:07:19;4.18;;;1.70;;
28960;SDS011;16068;42.896;20.868;2023-08-12T11:10:21;6.45;;;2.60;;
28960;SDS011;16068;42.896;20.868;2023-08-12T11:13:12;7.38;;;2.30;;
28960;SDS011;16068;42.896;20.868;2023-08-12T11:16:17;3.00;;;2.00;;
28960;SDS011;16068;42.896;20.868;2023-08-12T11:19:04;3.40;;;1.80;;
28960;SDS011;16068;42.896;20.868;2023-08-12T11:21:51;4.55;;;3.00;;
28960;SDS011;16068;42.896;20.868;2023-08-12T11:24:41;4.25;;;2.38;;
28960;SDS011;16068;42.896;20.868;2023-08-12T11:27:28;4.53;;;2.10;;
28960;SDS011;16068;42.896;20.868;2023-08-12T11:30:14;9.95;;;2.53;;
28960;SDS011;16068;42.896;20.868;2023-08-12T11:33:02;3.20;;;1.70;;
28960;SDS011;16068;42.896;20.868;2023-08-12T11:35:49;9.93;;;2.20;;
28960;SDS011;16068;42.896;20.868;2023-08-12T11:38:37;6.00;;;1.92;;
28960;SDS011;16068;42.896;20.868;2023-08-12T11:41:23;6.63;;;2.03;;
28960;SDS011;16068;42.896;20.868;2023-08-12T11:44:12;3.17;;;1.98;;
28960;SDS011;16068;42.896;20.868;2023-08-12T11:47:01;3.53;;;1.95;;
28960;SDS011;16068;42.896;20.868;2023-08-12T11:49:47;4.07;;;2.10;;
28960;SDS011;16068;42.896;20.868;2023-08-12T11:52:33;3.40;;;2.05;;
28960;SDS011;16068;42.896;20.868;2023-08-12T11:55:20;8.63;;;2.30;;
28960;SDS011;16068;42.896;20.868;2023-08-12T11:58:06;6.53;;;2.40;;
28960;SDS011;16068;42.896;20.868;2023-08-12T12:00:52;4.18;;;2.60;;
28960;SDS011;16068;42.896;20.868;2023-08-12T12:03:39;5.72;;;2.20;;
28960;SDS011;16068;42.896;20.868;2023-08-12T12:06:33;4.35;;;2.10;;
28960;SDS011;16068;42.896;20.868;2023-08-12T12:09:22;3.03;;;1.70;;
28960;SDS011;16068;42.896;20.868;2023-08-12T12:12:11;4.80;;;1.98;;
28960;SDS011;16068;42.896;20.868;2023-08-12T12:14:57;3.83;;;2.05;;
28960;SDS011;16068;42.896;20.868;2023-08-12T12:17:47;4.05;;;2.22;;
28960;SDS011;16068;42.896;20.868;2023-08-12T12:20:34;6.65;;;2.38;;
28960;SDS011;16068;42.896;20.868;2023-08-12T12:23:20;3.45;;;2.05;;
28960;SDS011;16068;42.896;20.868;2023-08-12T12:26:07;4.75;;;2.28;;
28960;SDS011;16068;42.896;20.868;2023-08-12T12:28:55;4.70;;;2.45;;
28960;SDS011;16068;42.896;20.868;2023-08-12T12:31:43;5.93;;;2.30;;
28960;SDS011;16068;42.896;20.868;2023-08-12T12:34:29;9.57;;;3.00;;
28960;SDS011;16068;42.896;20.868;2023-08-12T12:37:15;10.02;;;2.08;;
28960;SDS011;16068;42.896;20.868;2023-08-12T12:40:02;5.88;;;1.90;;
28960;SDS011;16068;42.896;20.868;2023-08-12T12:42:48;6.45;;;3.00;;
28960;SDS011;16068;42.896;20.868;2023-08-12T12:45:35;7.93;;;2.10;;
28960;SDS011;16068;42.896;20.868;2023-08-12T12:48:21;9.30;;;2.50;;
28960;SDS011;16068;42.896;20.868;2023-08-12T12:51:07;5.03;;;1.90;;
28960;SDS011;16068;42.896;20.868;2023-08-12T12:53:53;2.63;;;2.10;;
28960;SDS011;16068;42.896;20.868;2023-08-12T12:56:39;4.30;;;2.05;;
28960;SDS011;16068;42.896;20.868;2023-08-12T12:59:25;2.67;;;1.75;;
28960;SDS011;16068;42.896;20.868;2023-08-12T13:02:11;6.35;;;1.90;;
28960;SDS011;16068;42.896;20.868;2023-08-12T13:04:58;7.25;;;2.20;;
28960;SDS011;16068;42.896;20.868;2023-08-12T13:07:44;3.03;;;2.05;;
28960;SDS011;16068;42.896;20.868;2023-08-12T13:10:30;7.05;;;2.30;;
28960;SDS011;16068;42.896;20.868;2023-08-12T13:13:17;4.03;;;2.10;;
28960;SDS011;16068;42.896;20.868;2023-08-12T13:16:03;8.45;;;2.20;;
28960;SDS011;16068;42.896;20.868;2023-08-12T13:18:50;2.88;;;1.95;;
28960;SDS011;16068;42.896;20.868;2023-08-12T13:21:36;3.83;;;1.80;;
28960;SDS011;16068;42.896;20.868;2023-08-12T13:24:21;4.45;;;1.73;;
28960;SDS011;16068;42.896;20.868;2023-08-12T13:27:08;7.53;;;2.22;;
28960;SDS011;16068;42.896;20.868;2023-08-12T13:29:55;4.85;;;2.22;;
28960;SDS011;16068;42.896;20.868;2023-08-12T13:32:41;5.68;;;1.80;;
28960;SDS011;16068;42.896;20.868;2023-08-12T13:35:27;14.68;;;2.17;;
28960;SDS011;16068;42.896;20.868;2023-08-12T13:38:13;5.40;;;2.00;;
28960;SDS011;16068;42.896;20.868;2023-08-12T13:40:59;7.25;;;2.25;;
28960;SDS011;16068;42.896;20.868;2023-08-12T13:43:45;4.57;;;2.00;;
28960;SDS011;16068;42.896;20.868;2023-08-12T13:46:31;6.90;;;2.75;;
28960;SDS011;16068;42.896;20.868;2023-08-12T13:49:17;3.53;;;2.08;;
28960;SDS011;16068;42.896;20.868;2023-08-12T13:52:03;3.97;;;2.33;;
28960;SDS011;16068;42.896;20.868;2023-08-12T13:54:49;6.57;;;2.60;;
28960;SDS011;16068;42.896;20.868;2023-08-12T13:57:36;10.73;;;3.00;;
28960;SDS011;16068;42.896;20.868;2023-08-12T14:00:22;11.50;;;3.00;;
28960;SDS011;16068;42.896;20.868;2023-08-12T14:03:09;3.45;;;1.92;;
28960;SDS011;16068;42.896;20.868;2023-08-12T14:05:56;10.88;;;3.40;;
28960;SDS011;16068;42.896;20.868;2023-08-12T14:08:42;9.27;;;2.60;;
28960;SDS011;16068;42.896;20.868;2023-08-12T14:11:28;8.00;;;2.55;;
28960;SDS011;16068;42.896;20.868;2023-08-12T14:14:14;8.40;;;2.55;;
28960;SDS011;16068;42.896;20.868;2023-08-12T14:17:01;9.65;;;2.38;;
28960;SDS011;16068;42.896;20.868;2023-08-12T14:19:47;8.75;;;2.30;;
28960;SDS011;16068;42.896;20.868;2023-08-12T14:22:34;5.93;;;2.47;;
28960;SDS011;16068;42.896;20.868;2023-08-12T14:25:21;7.63;;;2.00;;
28960;SDS011;16068;42.896;20.868;2023-08-12T14:28:07;2.90;;;1.75;;
28960;SDS011;16068;42.896;20.868;2023-08-12T14:30:53;4.70;;;1.77;;
28960;SDS011;16068;42.896;20.868;2023-08-12T14:33:39;7.63;;;2.05;;
28960;SDS011;16068;42.896;20.868;2023-08-12T14:36:25;5.55;;;2.40;;
28960;SDS011;16068;42.896;20.868;2023-08-12T14:39:11;9.13;;;1.80;;
28960;SDS011;16068;42.896;20.868;2023-08-12T14:41:57;5.95;;;2.15;;
28960;SDS011;16068;42.896;20.868;2023-08-12T14:44:44;10.63;;;1.98;;
28960;SDS011;16068;42.896;20.868;2023-08-12T14:47:30;6.50;;;2.47;;
28960;SDS011;16068;42.896;20.868;2023-08-12T14:50:18;2.75;;;2.00;;
28960;SDS011;16068;42.896;20.868;2023-08-12T14:53:04;7.95;;;2.30;;
28960;SDS011;16068;42.896;20.868;2023-08-12T14:55:52;6.20;;;2.10;;
28960;SDS011;16068;42.896;20.868;2023-08-12T14:58:37;6.00;;;1.83;;
28960;SDS011;16068;42.896;20.868;2023-08-12T15:01:24;4.10;;;2.00;;
28960;SDS011;16068;42.896;20.868;2023-08-12T15:04:13;4.82;;;1.83;;
28960;SDS011;16068;42.896;20.868;2023-08-12T15:06:59;8.38;;;2.20;;
28960;SDS011;16068;42.896;20.868;2023-08-12T15:09:45;7.50;;;2.10;;
28960;SDS011;16068;42.896;20.868;2023-08-12T15:12:32;3.53;;;1.90;;
28960;SDS011;16068;42.896;20.868;2023-08-12T15:15:17;9.88;;;2.67;;
28960;SDS011;16068;42.896;20.868;2023-08-12T15:18:03;8.20;;;2.30;;
28960;SDS011;16068;42.896;20.868;2023-08-12T15:20:50;4.43;;;2.15;;
28960;SDS011;16068;42.896;20.868;2023-08-12T15:23:36;6.32;;;3.20;;
28960;SDS011;16068;42.896;20.868;2023-08-12T15:26:22;5.75;;;2.70;;
28960;SDS011;16068;42.896;20.868;2023-08-12T15:29:08;4.20;;;2.80;;
28960;SDS011;16068;42.896;20.868;2023-08-12T15:31:54;5.03;;;2.90;;
28960;SDS011;16068;42.896;20.868;2023-08-12T15:34:43;10.02;;;3.20;;
28960;SDS011;16068;42.896;20.868;2023-08-12T15:37:29;7.05;;;2.30;;
28960;SDS011;16068;42.896;20.868;2023-08-12T15:40:15;22.73;;;15.90;;
28960;SDS011;16068;42.896;20.868;2023-08-12T15:43:02;31.23;;;19.67;;
28960;SDS011;16068;42.896;20.868;2023-08-12T15:45:49;16.27;;;10.82;;
28960;SDS011;16068;42.896;20.868;2023-08-12T15:48:35;17.05;;;13.15;;
28960;SDS011;16068;42.896;20.868;2023-08-12T15:51:21;64.22;;;55.58;;
28960;SDS011;16068;42.896;20.868;2023-08-12T15:54:07;48.90;;;39.58;;
28960;SDS011;16068;42.896;20.868;2023-08-12T15:56:54;19.40;;;17.30;;
28960;SDS011;16068;42.896;20.868;2023-08-12T15:59:42;10.65;;;7.82;;
28960;SDS011;16068;42.896;20.868;2023-08-12T16:02:30;5.82;;;4.55;;
28960;SDS011;16068;42.896;20.868;2023-08-12T16:05:16;6.30;;;3.80;;
28960;SDS011;16068;42.896;20.868;2023-08-12T16:08:02;9.23;;;2.97;;
28960;SDS011;16068;42.896;20.868;2023-08-12T16:10:49;9.23;;;2.80;;
28960;SDS011;16068;42.896;20.868;2023-08-12T16:13:35;5.10;;;2.88;;
28960;SDS011;16068;42.896;20.868;2023-08-12T16:16:21;7.55;;;2.88;;
28960;SDS011;16068;42.896;20.868;2023-08-12T16:19:07;9.32;;;2.72;;
28960;SDS011;16068;42.896;20.868;2023-08-12T16:21:53;4.30;;;2.60;;
28960;SDS011;16068;42.896;20.868;2023-08-12T16:24:39;4.40;;;2.42;;
28960;SDS011;16068;42.896;20.868;2023-08-12T16:27:26;2.72;;;2.13;;
28960;SDS011;16068;42.896;20.868;2023-08-12T16:30:13;8.52;;;2.75;;
28960;SDS011;16068;42.896;20.868;2023-08-12T16:32:59;6.28;;;2.80;;